createdAt,value
2023-02-24T00:02:05.722Z,8.98
2023-02-24T00:04:39.606Z,8.59
2023-02-24T00:07:10.430Z,8.72
2023-02-24T00:09:40.557Z,8.79
2023-02-24T00:12:14.630Z,8.76
2023-02-24T00:14:45.690Z,8.79
2023-02-24T00:17:15.431Z,8.88
2023-02-24T00:19:44.290Z,8.62
2023-02-24T00:22:13.002Z,8.65
2023-02-24T00:24:42.048Z,8.56
2023-02-24T00:27:12.411Z,8.69
2023-02-24T00:29:42.267Z,8.75
2023-02-24T00:32:13.306Z,8.78
2023-02-24T00:34:43.191Z,8.77
2023-02-24T00:37:12.169Z,8.71
2023-02-24T00:39:41.859Z,8.69
2023-02-24T00:42:14.843Z,8.70
2023-02-24T00:44:47.336Z,8.69
2023-02-24T00:47:18.515Z,8.74
2023-02-24T00:49:48.285Z,8.74
2023-02-24T00:52:19.734Z,8.89
2023-02-24T00:54:50.994Z,9.06
2023-02-24T00:57:21.581Z,9.11
2023-02-24T00:59:52.825Z,9.18
2023-02-24T01:02:21.529Z,9.01
2023-02-24T01:04:51.132Z,8.90
2023-02-24T01:07:19.800Z,8.87
2023-02-24T01:09:52.174Z,8.83
2023-02-24T01:12:38.790Z,8.71
2023-02-24T01:15:10.116Z,8.35
2023-02-24T01:17:43.055Z,8.47
2023-02-24T01:20:19.966Z,8.56
2023-02-24T01:22:53.333Z,8.70
2023-02-24T01:25:22.382Z,8.86
2023-02-24T01:27:53.950Z,9.09
2023-02-24T01:30:22.745Z,9.13
2023-02-24T01:32:52.362Z,9.01
2023-02-24T01:35:21.079Z,8.93
2023-02-24T01:37:50.345Z,8.87
2023-02-24T01:40:21.688Z,9.00
2023-02-24T01:42:52.351Z,8.96
2023-02-24T01:45:28.686Z,8.90
2023-02-24T01:48:05.300Z,8.94
2023-02-24T01:50:38.909Z,8.96
2023-02-24T01:53:10.039Z,9.13
2023-02-24T01:55:49.173Z,9.17
2023-02-24T01:58:26.093Z,8.97
2023-02-24T02:00:57.841Z,9.06
2023-02-24T02:03:30.905Z,9.00
2023-02-24T02:06:03.969Z,8.87
2023-02-24T02:08:36.460Z,8.93
2023-02-24T02:11:10.433Z,8.95
2023-02-24T02:13:45.530Z,8.92
2023-02-24T02:16:45.215Z,8.96
2023-02-24T02:20:16.579Z,8.98
2023-02-24T02:23:40.827Z,8.89
2023-02-24T02:26:41.440Z,8.75
2023-02-24T02:29:52.081Z,8.82
2023-02-24T02:33:15.791Z,8.85
2023-02-24T02:36:00.557Z,8.96
2023-02-24T02:38:39.062Z,9.11
2023-02-24T02:41:22.970Z,9.07
2023-02-24T02:44:02.773Z,9.02
2023-02-24T02:46:40.071Z,8.93
2023-02-24T02:49:19.056Z,8.96
2023-02-24T02:51:55.095Z,8.87
2023-02-24T02:54:32.279Z,8.83
2023-02-24T02:57:09.832Z,8.83
2023-02-24T02:59:49.848Z,8.77
2023-02-24T03:02:28.078Z,8.71
2023-02-24T03:05:03.725Z,8.72
2023-02-24T03:07:42.005Z,8.87
2023-02-24T03:10:21.113Z,8.92
2023-02-24T03:12:55.318Z,9.06
2023-02-24T03:15:30.317Z,8.79
2023-02-24T03:18:10.307Z,8.90
2023-02-24T03:20:46.883Z,8.93
2023-02-24T03:23:25.684Z,8.91
2023-02-24T03:25:59.800Z,9.00
2023-02-24T03:28:38.528Z,8.92
2023-02-24T03:31:18.287Z,8.99
2023-02-24T03:34:03.661Z,8.98
2023-02-24T03:36:34.214Z,8.88
2023-02-24T03:39:06.442Z,8.88
2023-02-24T03:41:47.141Z,8.92
2023-02-24T03:44:15.829Z,8.87
2023-02-24T03:46:44.587Z,8.95
2023-02-24T03:49:17.393Z,9.03
2023-02-24T03:52:08.793Z,9.02
2023-02-24T03:55:12.408Z,8.97
2023-02-24T03:58:01.000Z,8.97
2023-02-24T04:00:46.240Z,8.93
2023-02-24T04:03:27.746Z,8.90
2023-02-24T04:06:14.944Z,8.88
2023-02-24T04:08:53.716Z,8.93
2023-02-24T04:11:31.674Z,8.97
2023-02-24T04:14:08.576Z,9.02
2023-02-24T04:16:44.827Z,9.18
2023-02-24T04:19:20.120Z,9.18
2023-02-24T04:21:52.453Z,9.20
2023-02-24T04:24:32.011Z,9.13
2023-02-24T04:27:07.474Z,9.06
2023-02-24T04:29:48.680Z,9.14
2023-02-24T04:32:24.986Z,8.86
2023-02-24T04:34:54.010Z,8.63
2023-02-24T04:37:23.261Z,8.74
2023-02-24T04:39:51.909Z,8.92
2023-02-24T04:42:30.027Z,8.87
2023-02-24T04:44:58.862Z,8.74
2023-02-24T04:47:28.915Z,8.71
2023-02-24T04:49:57.573Z,8.71
2023-02-24T04:52:26.038Z,8.66
2023-02-24T04:54:54.531Z,8.71
2023-02-24T04:57:23.076Z,8.75
2023-02-24T04:59:53.885Z,8.74
2023-02-24T05:02:22.547Z,8.67
2023-02-24T05:04:51.266Z,8.68
2023-02-24T05:07:19.847Z,8.75
2023-02-24T05:09:48.996Z,8.72
2023-02-24T05:12:17.568Z,8.87
2023-02-24T05:14:49.348Z,8.83
2023-02-24T05:17:20.160Z,8.81
2023-02-24T05:20:06.465Z,8.81
2023-02-24T05:22:35.076Z,8.82
2023-02-24T05:25:04.774Z,8.77
2023-02-24T05:27:38.902Z,8.86
2023-02-24T05:30:09.785Z,8.92
2023-02-24T05:32:39.899Z,8.84
2023-02-24T05:35:09.973Z,8.94
2023-02-24T05:37:41.973Z,9.02
2023-02-24T05:40:14.799Z,8.94
2023-02-24T05:42:45.303Z,8.99
2023-02-24T05:45:13.830Z,9.12
2023-02-24T05:47:46.444Z,8.98
2023-02-24T05:50:15.842Z,8.79
2023-02-24T05:52:45.810Z,8.67
2023-02-24T05:55:15.857Z,8.78
2023-02-24T05:57:44.827Z,8.79
2023-02-24T06:00:15.913Z,8.74
2023-02-24T06:02:49.487Z,8.71
2023-02-24T06:05:29.148Z,8.64
2023-02-24T06:08:06.200Z,8.77
2023-02-24T06:10:35.861Z,8.93
2023-02-24T06:13:06.845Z,9.03
2023-02-24T06:15:35.519Z,9.04
2023-02-24T06:18:07.081Z,8.98
2023-02-24T06:20:35.823Z,9.00
2023-02-24T06:23:05.359Z,8.94
2023-02-24T06:25:34.156Z,8.95
2023-02-24T06:28:02.656Z,8.96
2023-02-24T06:30:32.771Z,8.89
2023-02-24T06:33:01.528Z,8.97
2023-02-24T06:35:32.880Z,9.03
2023-02-24T06:38:01.447Z,9.02
2023-02-24T06:40:31.271Z,8.96
2023-02-24T06:42:59.828Z,8.98
2023-02-24T06:45:28.638Z,8.93
2023-02-24T06:47:58.045Z,9.07
2023-02-24T06:50:26.732Z,9.08
2023-02-24T06:53:00.717Z,9.10
2023-02-24T06:55:29.788Z,9.12
2023-02-24T06:58:04.552Z,9.29
2023-02-24T07:00:39.194Z,9.30
2023-02-24T07:03:17.372Z,9.28
2023-02-24T07:05:50.786Z,9.38
2023-02-24T07:08:23.906Z,9.33
2023-02-24T07:10:58.098Z,9.43
2023-02-24T07:13:29.879Z,9.50
2023-02-24T07:16:06.807Z,9.59
2023-02-24T07:18:36.306Z,9.72
2023-02-24T07:21:11.844Z,9.70
2023-02-24T07:23:43.697Z,9.70
2023-02-24T07:26:15.548Z,9.70
2023-02-24T07:28:48.107Z,9.75
2023-02-24T07:31:21.144Z,9.74
2023-02-24T07:33:53.527Z,9.77
2023-02-24T07:36:24.039Z,10.01
2023-02-24T07:38:56.101Z,9.92
2023-02-24T07:41:26.823Z,10.02
2023-02-24T07:43:58.966Z,10.12
2023-02-24T07:46:31.436Z,9.74
2023-02-24T07:49:00.246Z,10.10
2023-02-24T07:51:30.887Z,10.09
2023-02-24T07:54:03.375Z,10.21
2023-02-24T07:56:33.201Z,10.33
2023-02-24T07:59:07.971Z,10.14
2023-02-24T08:01:39.911Z,10.15
2023-02-24T08:04:12.674Z,10.29
2023-02-24T08:06:46.211Z,10.41
2023-02-24T08:09:20.663Z,10.59
2023-02-24T08:11:53.160Z,10.41
2023-02-24T08:14:24.633Z,10.38
2023-02-24T08:16:59.387Z,10.46
2023-02-24T08:19:33.226Z,10.72
2023-02-24T08:22:19.273Z,10.85
2023-02-24T08:24:52.958Z,10.97
2023-02-24T08:27:24.807Z,10.96
2023-02-24T08:30:02.922Z,10.82
2023-02-24T08:32:37.276Z,11.01
2023-02-24T08:35:14.870Z,10.97
2023-02-24T08:37:47.948Z,10.83
2023-02-24T08:40:38.076Z,10.86
2023-02-24T08:43:20.273Z,10.93
2023-02-24T08:45:52.065Z,11.32
2023-02-24T08:48:32.272Z,11.33
2023-02-24T08:51:05.633Z,11.44
2023-02-24T08:53:35.113Z,11.57
2023-02-24T08:56:09.627Z,11.75
2023-02-24T08:58:46.509Z,11.90
2023-02-24T09:01:20.521Z,11.67
2023-02-24T09:03:53.062Z,12.07
2023-02-24T09:06:26.597Z,12.14
2023-02-24T09:09:15.800Z,12.27
2023-02-24T09:11:47.188Z,12.35
2023-02-24T09:14:27.485Z,12.60
2023-02-24T09:17:05.505Z,12.03
2023-02-24T09:20:01.122Z,11.71
2023-02-24T09:22:41.017Z,11.88
2023-02-24T09:25:21.655Z,11.88
2023-02-24T09:27:55.818Z,11.93
2023-02-24T09:30:38.585Z,12.13
2023-02-24T09:33:18.041Z,12.51
2023-02-24T09:35:51.006Z,12.58
2023-02-24T09:38:42.352Z,12.54
2023-02-24T09:41:33.335Z,12.75
2023-02-24T09:44:18.353Z,12.44
2023-02-24T09:46:54.878Z,12.66
2023-02-24T09:49:39.865Z,12.81
2023-02-24T09:52:17.553Z,13.06
2023-02-24T09:55:07.954Z,13.14
2023-02-24T09:58:26.966Z,13.28
2023-02-24T10:01:22.299Z,13.29
2023-02-24T10:04:14.859Z,12.97
2023-02-24T10:06:52.106Z,13.13
2023-02-24T10:09:27.758Z,13.08
2023-02-24T10:12:04.686Z,12.95
2023-02-24T10:14:44.753Z,12.91
2023-02-24T10:17:30.738Z,12.81
2023-02-24T10:20:28.658Z,12.77
2023-02-24T10:23:05.545Z,12.43
2023-02-24T10:25:54.174Z,12.61
2023-02-24T10:28:37.011Z,12.60
2023-02-24T10:31:25.331Z,12.59
2023-02-24T10:34:06.272Z,13.01
2023-02-24T10:36:37.901Z,12.90
2023-02-24T10:39:17.110Z,13.06
2023-02-24T10:41:49.798Z,13.19
2023-02-24T10:44:25.029Z,13.15
2023-02-24T10:47:12.431Z,13.34
2023-02-24T10:49:56.922Z,13.17
2023-02-24T10:52:50.835Z,13.26
2023-02-24T10:55:52.204Z,13.57
2023-02-24T10:58:37.755Z,13.44
2023-02-24T11:01:18.610Z,13.33
2023-02-24T11:04:22.626Z,13.26
2023-02-24T11:07:12.042Z,13.50
2023-02-24T11:09:52.434Z,13.27
2023-02-24T11:12:42.655Z,13.39
2023-02-24T11:15:43.397Z,13.16
2023-02-24T11:18:20.669Z,13.34
2023-02-24T11:20:55.791Z,13.52
2023-02-24T11:23:31.950Z,13.48
2023-02-24T11:26:04.882Z,13.35
2023-02-24T11:29:15.346Z,13.73
2023-02-24T11:32:25.106Z,13.76
2023-02-24T11:35:04.372Z,13.63
2023-02-24T11:37:43.420Z,13.87
2023-02-24T11:40:23.248Z,13.82
2023-02-24T11:42:57.831Z,13.83
2023-02-24T11:45:37.734Z,14.02
2023-02-24T11:48:19.697Z,13.73
2023-02-24T11:51:01.885Z,13.99
2023-02-24T11:53:38.573Z,13.43
2023-02-24T11:56:17.107Z,13.64
2023-02-24T11:58:56.091Z,13.80
2023-02-24T12:01:32.485Z,13.71
2023-02-24T12:04:21.534Z,13.76
2023-02-24T12:06:58.773Z,13.73
2023-02-24T12:09:36.104Z,13.41
2023-02-24T12:12:16.618Z,13.33
2023-02-24T12:14:53.863Z,13.23
2023-02-24T12:17:34.890Z,13.30
2023-02-24T12:20:07.521Z,13.46
2023-02-24T12:22:47.893Z,13.36
2023-02-24T12:25:19.072Z,13.61
2023-02-24T12:28:11.286Z,13.77
2023-02-24T12:31:01.361Z,13.74
2023-02-24T12:33:49.316Z,13.88
2023-02-24T12:36:52.884Z,13.94
2023-02-24T12:39:31.806Z,14.22
2023-02-24T12:42:15.525Z,14.23
2023-02-24T12:45:01.098Z,13.94
2023-02-24T12:47:49.381Z,13.74
2023-02-24T12:50:32.782Z,13.85
2023-02-24T12:53:15.213Z,13.56
2023-02-24T12:55:57.104Z,13.50
2023-02-24T12:58:33.176Z,13.20
2023-02-24T13:01:18.509Z,13.28
2023-02-24T13:04:20.483Z,12.59
2023-02-24T13:07:05.110Z,12.10
2023-02-24T13:09:47.151Z,11.41
2023-02-24T13:12:27.212Z,11.25
2023-02-24T13:14:56.535Z,10.96
2023-02-24T13:17:28.064Z,10.68
2023-02-24T13:19:57.932Z,11.07
2023-02-24T13:22:32.606Z,11.11
2023-02-24T13:25:19.079Z,11.37
2023-02-24T13:28:00.140Z,11.31
2023-02-24T13:30:39.201Z,11.20
2023-02-24T13:33:25.774Z,11.30
2023-02-24T13:36:15.446Z,11.39
2023-02-24T13:38:46.861Z,11.49
2023-02-24T13:41:39.557Z,11.84
2023-02-24T13:44:27.632Z,11.88
2023-02-24T13:47:32.487Z,12.24
2023-02-24T13:50:25.182Z,12.29
2023-02-24T13:53:26.041Z,12.42
2023-02-24T13:56:47.006Z,12.33
2023-02-24T13:59:51.262Z,12.63
2023-02-24T14:02:31.028Z,12.77
2023-02-24T14:05:10.445Z,12.97
2023-02-24T14:07:41.962Z,13.03
2023-02-24T14:10:24.933Z,13.16
2023-02-24T14:13:17.202Z,13.26
2023-02-24T14:15:48.321Z,12.89
2023-02-24T14:18:22.292Z,13.11
2023-02-24T14:20:52.711Z,13.15
2023-02-24T14:23:28.797Z,13.31
2023-02-24T14:26:01.548Z,13.31
2023-02-24T14:28:34.220Z,13.55
2023-02-24T14:31:30.205Z,13.52
2023-02-24T14:34:02.662Z,13.77
2023-02-24T14:36:38.073Z,14.08
2023-02-24T14:39:17.029Z,14.33
2023-02-24T14:41:50.212Z,14.14
2023-02-24T14:44:27.414Z,14.15
2023-02-24T14:46:58.670Z,14.06
2023-02-24T14:49:31.534Z,14.04
2023-02-24T14:52:35.735Z,14.05
2023-02-24T14:55:13.750Z,14.11
2023-02-24T14:57:53.468Z,14.06
2023-02-24T15:00:26.974Z,13.76
2023-02-24T15:03:07.468Z,13.43
2023-02-24T15:05:44.643Z,13.33
2023-02-24T15:08:37.970Z,13.21
2023-02-24T15:11:22.233Z,13.07
2023-02-24T15:13:55.497Z,12.90
2023-02-24T15:16:28.177Z,12.94
2023-02-24T15:19:01.569Z,12.86
2023-02-24T15:21:33.729Z,12.53
2023-02-24T15:24:05.648Z,12.49
2023-02-24T15:26:37.073Z,12.15
2023-02-24T15:29:16.142Z,12.05
2023-02-24T15:31:48.967Z,11.85
2023-02-24T15:34:22.556Z,11.80
2023-02-24T15:36:55.377Z,11.77
2023-02-24T15:39:31.250Z,11.52
2023-02-24T15:42:22.191Z,11.44
2023-02-24T15:44:55.956Z,11.23
2023-02-24T15:47:31.377Z,11.21
2023-02-24T15:50:01.116Z,11.18
2023-02-24T15:52:32.968Z,11.16
2023-02-24T15:55:02.661Z,11.20
2023-02-24T15:57:35.016Z,11.36
2023-02-24T16:00:09.215Z,11.11
2023-02-24T16:02:41.265Z,11.23
2023-02-24T16:05:14.648Z,11.12
2023-02-24T16:07:46.759Z,11.26
2023-02-24T16:10:24.061Z,11.17
2023-02-24T16:12:57.753Z,11.17
2023-02-24T16:15:31.635Z,11.22
2023-02-24T16:18:02.273Z,11.19
2023-02-24T16:20:33.603Z,11.18
2023-02-24T16:23:06.032Z,11.17
2023-02-24T16:25:42.521Z,10.99
2023-02-24T16:28:16.713Z,11.01
2023-02-24T16:30:47.425Z,10.78
2023-02-24T16:33:18.026Z,10.67
2023-02-24T16:35:47.419Z,10.71
2023-02-24T16:38:19.554Z,10.70
2023-02-24T16:40:52.434Z,10.53
2023-02-24T16:43:22.834Z,10.52
2023-02-24T16:45:55.946Z,10.48
2023-02-24T16:48:27.977Z,10.39
2023-02-24T16:50:57.021Z,10.37
2023-02-24T16:53:26.427Z,10.38
2023-02-24T16:55:55.016Z,10.37
2023-02-24T16:58:25.310Z,10.33
2023-02-24T17:00:59.200Z,10.35
2023-02-24T17:03:39.653Z,10.35
2023-02-24T17:06:09.309Z,10.29
2023-02-24T17:08:38.210Z,10.15
2023-02-24T17:11:07.942Z,10.17
2023-02-24T17:13:37.949Z,10.11
2023-02-24T17:16:07.325Z,10.11
2023-02-24T17:18:36.108Z,10.08
2023-02-24T17:21:06.094Z,10.13
2023-02-24T17:23:34.853Z,10.20
2023-02-24T17:26:04.323Z,10.12
2023-02-24T17:28:33.135Z,10.17
2023-02-24T17:31:03.490Z,10.27
2023-02-24T17:33:33.759Z,10.18
2023-02-24T17:36:02.651Z,10.12
2023-02-24T17:38:31.525Z,9.97
2023-02-24T17:41:02.325Z,9.86
2023-02-24T17:43:30.990Z,9.80
2023-02-24T17:46:06.947Z,9.75
2023-02-24T17:48:36.317Z,9.62
2023-02-24T17:51:05.268Z,9.62
2023-02-24T17:53:34.021Z,9.62
2023-02-24T17:56:04.817Z,9.50
2023-02-24T17:58:34.729Z,9.46
2023-02-24T18:01:07.053Z,9.47
2023-02-24T18:03:37.361Z,9.48
2023-02-24T18:06:09.474Z,9.46
2023-02-24T18:08:40.544Z,9.43
2023-02-24T18:11:22.823Z,9.43
2023-02-24T18:13:52.704Z,9.40
2023-02-24T18:16:37.999Z,9.52
2023-02-24T18:19:23.756Z,9.52
2023-02-24T18:21:52.593Z,9.55
2023-02-24T18:24:22.771Z,9.47
2023-02-24T18:26:51.583Z,9.47
2023-02-24T18:29:45.472Z,9.36
2023-02-24T18:32:15.770Z,9.31
2023-02-24T18:34:45.315Z,9.25
2023-02-24T18:37:15.278Z,9.34
2023-02-24T18:39:43.913Z,9.35
2023-02-24T18:42:12.778Z,9.31
2023-02-24T18:44:41.418Z,9.35
2023-02-24T18:47:10.213Z,9.52
2023-02-24T18:49:40.204Z,9.45
2023-02-24T18:52:08.795Z,9.46
2023-02-24T18:54:37.478Z,9.43
2023-02-24T18:57:06.407Z,9.45
2023-02-24T18:59:35.022Z,9.41
2023-02-24T19:02:03.926Z,9.43
2023-02-24T19:04:32.706Z,9.38
2023-02-24T19:07:02.812Z,9.27
2023-02-24T19:09:31.442Z,9.17
2023-02-24T19:12:01.365Z,9.08
2023-02-24T19:14:31.585Z,9.12
2023-02-24T19:17:01.601Z,9.26
2023-02-24T19:19:30.294Z,9.13
2023-02-24T19:21:58.961Z,9.06
2023-02-24T19:24:30.393Z,9.16
2023-02-24T19:26:59.340Z,9.18
2023-02-24T19:29:28.400Z,9.28
2023-02-24T19:31:58.148Z,9.23
2023-02-24T19:34:26.993Z,9.38
2023-02-24T19:36:55.556Z,9.41
2023-02-24T19:39:24.247Z,9.41
2023-02-24T19:41:54.814Z,9.26
2023-02-24T19:44:23.489Z,9.25
2023-02-24T19:46:52.535Z,8.80
2023-02-24T19:49:21.340Z,8.40
2023-02-24T19:51:50.171Z,8.23
2023-02-24T19:54:19.807Z,7.98
2023-02-24T19:56:48.529Z,7.91
2023-02-24T19:59:19.949Z,7.87
2023-02-24T20:01:54.221Z,7.79
2023-02-24T20:04:24.558Z,7.88
2023-02-24T20:06:53.161Z,7.91
2023-02-24T20:09:22.386Z,8.00
2023-02-24T20:11:54.252Z,8.00
2023-02-24T20:14:28.620Z,8.02
2023-02-24T20:16:57.411Z,8.08
2023-02-24T20:19:26.331Z,7.90
2023-02-24T20:21:55.110Z,7.89
2023-02-24T20:24:23.816Z,7.82
2023-02-24T20:26:52.518Z,7.75
2023-02-24T20:29:24.127Z,7.79
2023-02-24T20:31:53.053Z,7.71
2023-02-24T20:34:22.539Z,7.68
2023-02-24T20:36:51.099Z,7.66
2023-02-24T20:39:24.746Z,7.56
2023-02-24T20:41:55.058Z,7.53
2023-02-24T20:44:25.499Z,7.51
2023-02-24T20:46:54.216Z,7.45
2023-02-24T20:49:23.719Z,7.34
2023-02-24T20:51:52.544Z,7.30
2023-02-24T20:54:21.545Z,7.12
2023-02-24T20:56:50.141Z,7.13
2023-02-24T20:59:22.539Z,7.00
2023-02-24T21:01:52.859Z,6.99
2023-02-24T21:04:22.713Z,6.83
2023-02-24T21:06:52.009Z,6.82
2023-02-24T21:09:23.887Z,6.89
2023-02-24T21:11:52.867Z,6.86
2023-02-24T21:14:22.957Z,6.87
2023-02-24T21:16:53.494Z,6.91
2023-02-24T21:19:22.879Z,6.85
2023-02-24T21:21:51.635Z,6.86
2023-02-24T21:24:21.038Z,6.81
2023-02-24T21:26:49.774Z,6.83
2023-02-24T21:29:18.471Z,6.75
2023-02-24T21:31:47.528Z,6.80
2023-02-24T21:34:32.696Z,6.66
2023-02-24T21:37:02.322Z,6.62
2023-02-24T21:39:30.945Z,6.40
2023-02-24T21:41:59.573Z,6.24
2023-02-24T21:44:28.494Z,6.10
2023-02-24T21:46:57.281Z,6.00
2023-02-24T21:49:26.477Z,5.87
2023-02-24T21:51:56.904Z,5.82
2023-02-24T21:54:26.823Z,5.73
2023-02-24T21:56:55.513Z,5.67
2023-02-24T21:59:24.451Z,5.67
2023-02-24T22:01:54.251Z,5.66
2023-02-24T22:04:23.618Z,5.64
2023-02-24T22:06:52.293Z,5.67
2023-02-24T22:09:22.599Z,5.63
2023-02-24T22:11:51.554Z,5.63
2023-02-24T22:14:21.333Z,5.64
2023-02-24T22:16:50.387Z,5.63
2023-02-24T22:19:21.349Z,5.76
2023-02-24T22:21:49.982Z,5.78
2023-02-24T22:24:19.441Z,5.75
2023-02-24T22:26:51.120Z,5.84
2023-02-24T22:29:20.074Z,5.56
2023-02-24T22:31:49.887Z,5.46
2023-02-24T22:34:18.801Z,5.33
2023-02-24T22:36:47.552Z,5.47
2023-02-24T22:39:17.382Z,5.54
2023-02-24T22:41:47.511Z,5.59
2023-02-24T22:44:19.236Z,5.40
2023-02-24T22:46:49.296Z,5.38
2023-02-24T22:49:18.684Z,5.37
2023-02-24T22:51:47.456Z,5.27
2023-02-24T22:54:16.177Z,5.08
2023-02-24T22:56:44.794Z,5.05
2023-02-24T22:59:15.910Z,5.11
2023-02-24T23:01:46.011Z,5.21
2023-02-24T23:04:18.400Z,5.26
2023-02-24T23:06:48.294Z,5.17
2023-02-24T23:09:19.946Z,5.08
2023-02-24T23:11:49.274Z,5.10
2023-02-24T23:14:18.337Z,5.08
2023-02-24T23:16:55.610Z,5.02
2023-02-24T23:19:25.644Z,5.05
2023-02-24T23:21:56.395Z,4.91
2023-02-24T23:24:25.705Z,4.91
2023-02-24T23:26:57.682Z,4.94
2023-02-24T23:29:27.802Z,4.91
2023-02-24T23:31:58.387Z,4.97
2023-02-24T23:34:27.246Z,5.01
2023-02-24T23:36:55.926Z,5.07
2023-02-24T23:39:24.825Z,5.09
2023-02-24T23:41:57.599Z,5.02
2023-02-24T23:44:26.849Z,5.00
2023-02-24T23:46:58.532Z,5.04
2023-02-24T23:49:39.152Z,5.01
2023-02-24T23:52:12.474Z,5.02
2023-02-24T23:54:41.131Z,5.09
2023-02-24T23:57:09.856Z,4.98
2023-02-24T23:59:39.427Z,5.04
